Dingess, West Virginia
Current Conditions -  °F | °C
As of 3:55 PM on Sunday 23 Nov 2014 (Local Time) from KSJS Reporting Station
Moderate Rain Moderate Rain  
Wind Chill: 54°   Ceiling: 9000
Heat Index: 54°   Visibility: 10mi
Dew Point: 51°   Wind: 8mph
Humidity: 89%   Direction: 110°ESE
Pressure: 29.75"   Gusts: NA
Location:  37.87°N, 82.17°W
Report Text: KSJS 232055Z AUTO 11007KT 10SM RA OVC090 12/11 A2975 RMK AO2 T01230106
Loading
Personal Weather Stations






























Interactive Weather Map New forecast layout! Learn more

10-Day Weather Forecast

Advertisements
Track Severe Weather on mobile